Time;durP1;ratioP1;P1;durP2;ratioP2;P2;SDS_P1;SDS_P2;PMS_P1;PMS_P2;Temp;Humidity;BMP_temperature;BMP_pressure;BME280_temperature;BME280_humidity;BME280_pressure;Samples;Min_cycle;Max_cycle;Signal;HPM_P1;HPM_P2
2021/08/10 00:03:43;;;;;;;3.33;3.03;;;18.00;99.90;;;;;;9677458;30;20313;-82
2021/08/10 00:08:45;;;;;;;3.60;3.30;;;18.00;99.90;;;;;;9664046;30;20239;-82
2021/08/10 00:13:47;;;;;;;3.33;3.13;;;18.00;99.90;;;;;;9661930;30;20318;-82
2021/08/10 00:18:51;;;;;;;6.03;4.27;;;18.00;99.90;;;;;;9658995;30;20208;-82
2021/08/10 00:23:53;;;;;;;8.43;3.07;;;17.90;99.90;;;;;;9674559;30;20222;-81
2021/08/10 00:28:55;;;;;;;3.50;3.20;;;17.80;99.90;;;;;;9673288;30;20322;-82
2021/08/10 00:33:58;;;;;;;5.47;3.40;;;17.80;99.90;;;;;;9664589;30;20239;-82
2021/08/10 00:39:00;;;;;;;3.30;3.00;;;17.80;99.90;;;;;;9667309;30;20617;-82
2021/08/10 00:44:03;;;;;;;3.10;2.90;;;17.80;99.90;;;;;;9672401;30;20227;-81
2021/08/10 00:49:07;;;;;;;3.30;3.00;;;17.70;99.90;;;;;;9663392;30;20318;-81
2021/08/10 00:54:12;;;;;;;4.13;3.17;;;17.70;99.90;;;;;;9656893;30;20653;-81
2021/08/10 00:59:21;;;;;;;3.30;3.10;;;17.70;99.90;;;;;;9642477;30;20226;-82
2021/08/10 01:04:32;;;;;;;3.83;3.50;;;17.60;99.90;;;;;;9641334;30;20216;-82
2021/08/10 01:09:42;;;;;;;3.90;3.43;;;17.60;99.90;;;;;;9659430;30;20309;-82
2021/08/10 01:14:50;;;;;;;4.40;4.00;;;17.60;99.90;;;;;;9659924;30;20211;-81
2021/08/10 01:20:14;;;;;;;3.43;3.23;;;17.60;99.90;;;;;;9656631;30;20225;-81
2021/08/10 01:25:33;;;;;;;3.50;3.30;;;17.50;99.90;;;;;;9661540;30;20203;-81
2021/08/10 01:30:54;;;;;;;3.63;3.37;;;17.50;99.90;;;;;;9645727;30;20253;-82
2021/08/10 01:36:01;;;;;;;4.30;3.90;;;17.50;99.90;;;;;;9658147;30;20219;-82
2021/08/10 01:41:04;;;;;;;3.53;3.10;;;17.50;99.90;;;;;;9646361;30;20603;-82
2021/08/10 01:46:07;;;;;;;4.37;3.90;;;17.40;99.90;;;;;;9666008;30;20605;-81
2021/08/10 01:51:13;;;;;;;4.63;3.80;;;17.40;99.90;;;;;;9667618;30;20277;-82
2021/08/10 01:56:18;;;;;;;3.30;3.10;;;17.40;99.90;;;;;;9667880;30;20215;-82
2021/08/10 02:01:24;;;;;;;4.33;3.93;;;17.30;99.90;;;;;;9681622;30;20236;-82
2021/08/10 02:06:29;;;;;;;4.10;3.60;;;17.30;99.90;;;;;;9668724;30;20677;-82
2021/08/10 02:11:36;;;;;;;5.63;4.20;;;17.30;99.90;;;;;;9683607;30;20428;-82
2021/08/10 02:16:43;;;;;;;4.33;3.93;;;17.30;99.90;;;;;;9675174;30;20233;-82
2021/08/10 02:21:59;;;;;;;3.63;3.43;;;17.30;99.90;;;;;;9694285;30;20237;-82
2021/08/10 02:27:06;;;;;;;3.93;3.53;;;17.20;99.90;;;;;;9678374;30;20218;-82
2021/08/10 02:32:11;;;;;;;4.00;3.70;;;17.10;99.90;;;;;;9693892;30;20234;-81
2021/08/10 02:37:18;;;;;;;4.33;3.90;;;17.10;99.90;;;;;;9678779;30;20206;-82
2021/08/10 02:42:25;;;;;;;4.10;3.80;;;17.10;99.90;;;;;;9693469;30;20231;-82
2021/08/10 02:47:29;;;;;;;4.20;3.80;;;17.10;99.90;;;;;;9659365;30;20231;-81
2021/08/10 02:52:33;;;;;;;3.97;3.67;;;17.10;99.90;;;;;;9644604;30;20231;-82
2021/08/10 02:57:44;;;;;;;3.63;3.43;;;17.10;99.90;;;;;;9646815;30;20235;-82
2021/08/10 03:16:00;;;;;;;5.70;3.97;;;17.00;99.90;;;;;;9563687;30;20261;-82
2021/08/10 03:21:04;;;;;;;5.90;3.77;;;17.00;99.90;;;;;;9640348;30;20307;-81
2021/08/10 03:26:11;;;;;;;5.33;3.97;;;17.00;99.90;;;;;;9632776;30;20223;-81
2021/08/10 03:31:15;;;;;;;3.77;3.47;;;17.00;99.90;;;;;;9630986;30;20243;-82
2021/08/10 03:36:25;;;;;;;4.00;3.60;;;17.00;99.90;;;;;;9634005;30;20215;-81
2021/08/10 03:41:29;;;;;;;3.60;3.40;;;17.00;99.90;;;;;;9651723;30;20223;-81
2021/08/10 03:51:51;;;;;;;7.90;4.17;;;17.00;99.90;;;;;;9654129;30;20242;-81
2021/08/10 03:56:55;;;;;;;4.43;4.03;;;16.90;99.90;;;;;;9663623;30;20226;-81
2021/08/10 04:01:58;;;;;;;4.50;4.10;;;16.90;99.90;;;;;;9677934;30;20296;-81
2021/08/10 04:07:05;;;;;;;8.07;5.33;;;16.90;99.90;;;;;;9676326;30;20278;-82
2021/08/10 04:12:11;;;;;;;4.17;3.83;;;16.90;99.90;;;;;;9679746;30;20264;-81
2021/08/10 04:17:17;;;;;;;11.93;4.73;;;16.90;99.90;;;;;;9667751;30;20237;-81
2021/08/10 04:22:20;;;;;;;5.40;3.70;;;16.90;99.90;;;;;;9681775;30;20275;-81
2021/08/10 04:27:25;;;;;;;4.50;4.10;;;17.00;99.90;;;;;;9697633;30;20614;-81
2021/08/10 04:32:31;;;;;;;4.27;4.00;;;17.10;99.90;;;;;;9682542;30;20278;-81
2021/08/10 04:37:34;;;;;;;4.27;3.90;;;17.20;99.90;;;;;;9670091;30;20211;-82
2021/08/10 04:42:37;;;;;;;3.60;3.30;;;17.20;99.90;;;;;;9684576;30;21114;-82
2021/08/10 04:47:41;;;;;;;4.10;3.80;;;17.40;99.90;;;;;;9684293;30;20763;-82
2021/08/10 04:52:43;;;;;;;4.30;4.00;;;17.50;99.90;;;;;;9697248;30;20628;-83
2021/08/10 04:57:48;;;;;;;4.63;4.20;;;17.60;99.90;;;;;;9678502;30;20210;-83
2021/08/10 05:02:51;;;;;;;3.90;3.60;;;17.70;99.90;;;;;;9684819;30;20336;-82
2021/08/10 05:07:53;;;;;;;4.50;4.10;;;17.80;99.90;;;;;;9685956;30;20544;-82
2021/08/10 05:12:57;;;;;;;4.10;3.80;;;17.90;99.90;;;;;;9702249;30;20337;-82
2021/08/10 05:18:02;;;;;;;4.23;3.83;;;18.00;99.90;;;;;;9694580;30;20282;-82
2021/08/10 05:23:07;;;;;;;4.13;3.73;;;18.10;99.90;;;;;;9678423;30;20683;-82
2021/08/10 05:28:13;;;;;;;5.13;3.80;;;18.20;99.90;;;;;;9677512;30;20661;-81
2021/08/10 05:33:16;;;;;;;4.70;4.30;;;18.30;99.90;;;;;;9704080;25;20263;-80
2021/08/10 05:38:18;;;;;;;4.17;3.87;;;18.40;99.90;;;;;;9704837;30;20214;-82
2021/08/10 05:43:25;;;;;;;5.20;4.70;;;18.50;99.90;;;;;;9685512;30;20272;-81
2021/08/10 05:48:28;;;;;;;4.43;4.13;;;18.50;99.90;;;;;;9705303;30;20223;-81
2021/08/10 05:53:35;;;;;;;6.87;4.20;;;18.60;99.90;;;;;;9700699;30;20234;-81
2021/08/10 05:58:38;;;;;;;4.37;4.00;;;18.70;99.90;;;;;;9714573;30;20231;-80
2021/08/10 06:03:42;;;;;;;4.53;4.13;;;18.80;99.90;;;;;;9699909;30;20227;-80
2021/08/10 06:08:44;;;;;;;4.20;3.80;;;19.00;99.90;;;;;;9699530;30;20228;-80
2021/08/10 06:13:49;;;;;;;7.10;4.67;;;19.10;99.90;;;;;;9700903;30;20241;-80
2021/08/10 06:18:52;;;;;;;5.00;4.40;;;19.20;99.90;;;;;;9696519;30;20225;-80
2021/08/10 06:24:00;;;;;;;5.07;4.17;;;19.20;99.90;;;;;;9698705;30;20742;-80
2021/08/10 06:29:03;;;;;;;5.00;4.50;;;19.40;99.90;;;;;;9698101;30;20253;-80
2021/08/10 06:34:06;;;;;;;4.57;4.17;;;19.50;99.90;;;;;;9683627;30;20250;-80
2021/08/10 06:39:08;;;;;;;5.87;4.43;;;19.60;99.90;;;;;;9697093;30;20217;-80
2021/08/10 06:44:20;;;;;;;8.00;3.77;;;19.80;99.90;;;;;;9699857;30;20317;-80
2021/08/10 06:49:30;;;;;;;6.77;4.23;;;19.90;99.90;;;;;;9702393;30;20214;-80
2021/08/10 06:54:32;;;;;;;4.73;3.90;;;19.90;99.90;;;;;;9718384;30;20210;-80
2021/08/10 06:59:37;;;;;;;4.57;4.13;;;20.10;99.90;;;;;;9696066;30;20619;-80
2021/08/10 07:04:41;;;;;;;4.03;3.73;;;20.40;99.90;;;;;;9699251;30;20222;-81
2021/08/10 07:09:43;;;;;;;6.03;3.70;;;20.70;99.90;;;;;;9691038;30;20273;-81
2021/08/10 07:14:47;;;;;;;5.57;3.70;;;20.90;99.90;;;;;;9682947;30;20213;-80
2021/08/10 07:19:49;;;;;;;4.20;3.77;;;21.10;99.90;;;;;;9676008;30;20234;-81
2021/08/10 07:24:58;;;;;;;3.80;3.50;;;21.20;99.90;;;;;;9683558;30;20242;-81
2021/08/10 07:30:01;;;;;;;3.40;3.20;;;21.40;99.90;;;;;;9679052;30;20245;-81
2021/08/10 07:35:06;;;;;;;3.37;3.17;;;21.60;99.90;;;;;;9678799;30;20246;-82
2021/08/10 07:40:10;;;;;;;4.20;3.37;;;21.70;99.90;;;;;;9703861;30;20226;-82
2021/08/10 07:45:14;;;;;;;3.40;3.20;;;21.90;99.90;;;;;;9700644;30;20233;-82
2021/08/10 07:50:20;;;;;;;3.50;3.30;;;21.90;99.90;;;;;;9712641;30;20241;-82
2021/08/10 07:55:22;;;;;;;3.90;3.60;;;22.10;99.90;;;;;;9712491;30;20209;-81
2021/08/10 08:00:27;;;;;;;3.63;3.33;;;22.30;99.90;;;;;;9683867;30;20226;-81
2021/08/10 08:05:29;;;;;;;3.60;3.40;;;22.60;99.90;;;;;;9674707;30;20203;-81
2021/08/10 08:10:32;;;;;;;3.40;3.17;;;22.70;99.90;;;;;;9676485;30;20258;-81
2021/08/10 08:15:36;;;;;;;5.60;3.00;;;22.70;99.90;;;;;;9692450;30;20233;-81
2021/08/10 08:20:41;;;;;;;5.90;3.30;;;22.60;99.90;;;;;;9710338;30;20251;-81
2021/08/10 08:25:44;;;;;;;4.90;3.37;;;22.60;99.90;;;;;;9693647;30;20237;-81
2021/08/10 08:30:47;;;;;;;4.70;4.20;;;22.90;99.90;;;;;;9683155;30;20265;-80
2021/08/10 08:35:51;;;;;;;4.00;3.57;;;23.20;99.90;;;;;;9704352;30;20210;-80
2021/08/10 08:40:53;;;;;;;3.93;3.53;;;23.50;99.90;;;;;;9694574;30;20230;-80
2021/08/10 08:45:57;;;;;;;3.30;3.00;;;23.90;99.90;;;;;;9717258;30;20214;-80
2021/08/10 08:51:10;;;;;;;8.07;3.57;;;24.20;99.90;;;;;;9710325;30;20317;-80
2021/08/10 08:56:14;;;;;;;5.50;3.80;;;24.70;99.90;;;;;;9709545;30;20226;-80
2021/08/10 09:01:18;;;;;;;4.40;3.63;;;25.00;99.90;;;;;;9716784;30;20651;-80
2021/08/10 09:06:22;;;;;;;3.20;3.00;;;25.10;98.30;;;;;;9701472;30;20222;-80
2021/08/10 09:11:24;;;;;;;3.60;3.10;;;25.20;99.30;;;;;;9699850;30;20245;-80
2021/08/10 09:16:29;;;;;;;3.37;3.17;;;25.30;98.80;;;;;;9700954;30;20214;-80
2021/08/10 09:21:33;;;;;;;3.20;2.80;;;25.30;98.90;;;;;;9699528;30;20223;-81
2021/08/10 09:26:47;;;;;;;3.67;2.80;;;25.20;97.90;;;;;;9699582;30;20205;-81
2021/08/10 09:32:02;;;;;;;2.93;2.73;;;25.10;97.10;;;;;;9677970;30;20834;-81
2021/08/10 09:37:13;;;;;;;3.27;3.03;;;25.00;96.70;;;;;;9668335;30;20277;-81
2021/08/10 09:42:16;;;;;;;6.00;2.67;;;24.90;94.70;;;;;;9668217;30;20235;-81
2021/08/10 09:47:33;;;;;;;2.97;2.77;;;24.80;94.70;;;;;;9696761;30;20321;-80
2021/08/10 09:52:36;;;;;;;3.80;3.50;;;24.80;95.50;;;;;;9716554;30;20241;-81
2021/08/10 09:57:43;;;;;;;3.30;2.90;;;25.00;98.00;;;;;;9715652;30;20214;-81
2021/08/10 10:02:47;;;;;;;2.80;2.60;;;25.00;94.80;;;;;;9701408;30;20225;-81
2021/08/10 10:08:13;;;;;;;3.03;2.83;;;25.00;97.10;;;;;;9732567;30;20236;-81
2021/08/10 10:13:18;;;;;;;4.17;2.60;;;25.10;95.40;;;;;;9701840;30;20237;-81
2021/08/10 10:18:25;;;;;;;3.63;3.33;;;25.10;96.50;;;;;;9716528;30;20317;-81
2021/08/10 10:23:31;;;;;;;1.97;1.87;;;25.20;96.30;;;;;;9733155;30;20234;-81
2021/08/10 10:28:33;;;;;;;3.70;3.13;;;25.20;93.70;;;;;;9721286;30;20226;-81
2021/08/10 10:33:37;;;;;;;2.80;2.70;;;25.10;92.50;;;;;;9729920;30;20736;-81
2021/08/10 10:38:43;;;;;;;3.10;2.90;;;25.20;93.50;;;;;;9696034;30;20647;-81
2021/08/10 10:43:45;;;;;;;3.33;3.03;;;25.20;93.80;;;;;;9697417;30;20245;-81
2021/08/10 10:48:49;;;;;;;3.50;3.20;;;25.20;93.50;;;;;;9731154;30;20561;-80
2021/08/10 10:53:51;;;;;;;3.17;2.87;;;25.10;92.90;;;;;;9710578;30;20262;-80
2021/08/10 10:58:54;;;;;;;2.90;2.70;;;25.10;93.50;;;;;;9713211;30;20561;-80
2021/08/10 11:04:13;;;;;;;3.70;3.13;;;25.10;95.60;;;;;;9694662;30;20613;-81
2021/08/10 11:09:56;;;;;;;2.67;2.47;;;25.20;95.30;;;;;;9679731;30;20225;-81
2021/08/10 11:14:58;;;;;;;3.83;3.53;;;25.30;94.60;;;;;;9721487;30;20221;-81
2021/08/10 11:20:22;;;;;;;3.87;3.50;;;25.30;94.80;;;;;;9709984;30;20451;-80
2021/08/10 11:25:25;;;;;;;3.93;3.67;;;25.30;96.30;;;;;;9703569;30;20219;-81
2021/08/10 11:30:46;;;;;;;3.70;3.50;;;25.30;96.60;;;;;;9704420;25;20246;-81
2021/08/10 11:35:50;;;;;;;3.50;3.30;;;25.10;94.40;;;;;;9714515;30;20548;-81
2021/08/10 11:40:58;;;;;;;3.90;3.70;;;25.00;94.70;;;;;;9718119;30;20561;-81
2021/08/10 11:46:00;;;;;;;4.30;3.50;;;25.00;94.40;;;;;;9734546;30;20217;-81
2021/08/10 11:51:18;;;;;;;4.03;3.73;;;25.10;95.40;;;;;;9708160;30;20301;-81
2021/08/10 11:56:25;;;;;;;3.20;3.00;;;25.20;95.80;;;;;;9710234;30;20707;-81
2021/08/10 12:01:30;;;;;;;3.20;3.00;;;25.30;94.40;;;;;;9732199;30;20303;-81
2021/08/10 12:06:34;;;;;;;3.00;2.80;;;25.50;94.50;;;;;;9748138;30;20209;-81
2021/08/10 12:11:36;;;;;;;3.33;3.13;;;25.60;93.90;;;;;;9729003;30;20633;-82
2021/08/10 12:16:39;;;;;;;3.73;3.40;;;25.60;94.90;;;;;;9692339;30;20211;-81
2021/08/10 12:21:45;;;;;;;3.27;3.13;;;25.60;93.90;;;;;;9731819;30;20256;-82
2021/08/10 12:26:51;;;;;;;3.93;3.50;;;25.60;93.50;;;;;;9741219;30;20213;-82
2021/08/10 12:31:55;;;;;;;3.20;3.00;;;25.60;93.50;;;;;;9721324;30;20253;-81
2021/08/10 12:36:59;;;;;;;6.00;3.50;;;25.50;94.70;;;;;;9740738;30;20284;-81
2021/08/10 12:42:02;;;;;;;4.80;4.13;;;25.50;95.60;;;;;;9712438;30;20230;-82
2021/08/10 12:47:06;;;;;;;4.00;3.70;;;25.50;94.50;;;;;;9712659;30;20211;-82
2021/08/10 12:52:12;;;;;;;4.60;3.00;;;25.60;94.70;;;;;;9697419;30;20667;-82
2021/08/10 12:57:19;;;;;;;3.97;3.77;;;25.50;95.50;;;;;;9696956;30;20261;-82
2021/08/10 13:02:36;;;;;;;3.60;3.23;;;25.50;95.20;;;;;;9681461;30;20223;-81
2021/08/10 13:07:41;;;;;;;4.17;3.60;;;25.30;94.90;;;;;;9695763;30;20214;-81
2021/08/10 13:12:54;;;;;;;3.50;3.20;;;25.10;94.50;;;;;;9695714;30;20246;-81
2021/08/10 13:17:56;;;;;;;4.10;3.80;;;25.10;95.60;;;;;;9685283;30;20774;-81
2021/08/10 13:23:00;;;;;;;4.23;3.93;;;25.00;96.50;;;;;;9687198;30;20642;-81
2021/08/10 13:28:10;;;;;;;4.23;3.80;;;24.90;94.00;;;;;;9693684;30;20207;-81
2021/08/10 13:33:15;;;;;;;4.63;4.27;;;24.80;94.70;;;;;;9694587;30;20246;-81
2021/08/10 13:38:19;;;;;;;5.93;3.47;;;24.90;93.80;;;;;;9694122;30;20214;-82
2021/08/10 13:43:21;;;;;;;4.20;3.63;;;24.90;93.80;;;;;;9678864;30;20578;-81
2021/08/10 13:48:23;;;;;;;5.03;3.97;;;24.80;93.80;;;;;;9680212;30;20652;-81
2021/08/10 13:53:27;;;;;;;3.70;3.50;;;24.90;94.30;;;;;;9679152;30;20245;-81
2021/08/10 13:58:31;;;;;;;4.30;4.00;;;24.90;93.80;;;;;;9679570;30;20211;-82
2021/08/10 14:03:35;;;;;;;4.23;3.87;;;24.80;93.30;;;;;;9695536;30;20257;-81
2021/08/10 14:08:40;;;;;;;3.80;3.50;;;24.70;94.00;;;;;;9696072;30;20199;-81
2021/08/10 14:13:42;;;;;;;4.70;4.00;;;24.70;94.10;;;;;;9693890;30;20632;-81
2021/08/10 14:18:44;;;;;;;4.60;4.00;;;24.80;93.70;;;;;;9700502;30;20211;-82
2021/08/10 14:23:47;;;;;;;4.60;4.17;;;24.80;94.00;;;;;;9671358;30;20231;-82
2021/08/10 14:28:50;;;;;;;4.47;3.97;;;24.80;93.30;;;;;;9696017;30;20211;-81
2021/08/10 14:33:52;;;;;;;4.10;3.70;;;24.80;93.30;;;;;;9694714;30;20668;-81
2021/08/10 14:38:55;;;;;;;3.93;3.63;;;24.70;93.70;;;;;;9692033;30;20278;-81
2021/08/10 14:43:57;;;;;;;3.97;3.63;;;24.70;93.60;;;;;;9691698;30;20708;-81
2021/08/10 14:48:59;;;;;;;4.40;4.10;;;24.60;93.80;;;;;;9694504;30;20294;-81
2021/08/10 14:54:03;;;;;;;5.10;3.40;;;24.50;94.50;;;;;;9692161;30;20239;-81
2021/08/10 14:59:05;;;;;;;4.00;3.60;;;24.40;93.70;;;;;;9693214;30;20214;-81
2021/08/10 15:04:07;;;;;;;3.33;3.13;;;24.30;95.20;;;;;;9680469;30;20294;-81
2021/08/10 15:09:11;;;;;;;4.70;3.63;;;24.20;94.00;;;;;;9689745;30;20207;-81
2021/08/10 15:14:13;;;;;;;4.07;3.77;;;24.00;93.40;;;;;;9676716;30;20398;-80
2021/08/10 15:19:15;;;;;;;4.03;3.73;;;23.90;93.40;;;;;;9703573;30;20238;-81
2021/08/10 15:24:19;;;;;;;3.83;3.53;;;23.80;93.70;;;;;;9691941;30;20241;-81
2021/08/10 15:29:21;;;;;;;4.37;4.00;;;23.70;96.10;;;;;;9763130;30;20214;-81
2021/08/10 15:34:23;;;;;;;3.90;3.60;;;23.60;95.80;;;;;;9733186;30;20234;-81
2021/08/10 15:39:28;;;;;;;4.27;3.97;;;23.50;96.30;;;;;;9724155;30;20625;-81
2021/08/10 15:44:30;;;;;;;3.67;3.37;;;23.50;96.50;;;;;;9720234;30;20221;-81
2021/08/10 15:49:32;;;;;;;3.93;3.63;;;23.40;97.40;;;;;;9699527;30;20297;-81
2021/08/10 15:54:37;;;;;;;3.87;3.43;;;23.40;96.90;;;;;;9688958;30;20234;-81
2021/08/10 15:59:39;;;;;;;3.83;3.53;;;23.30;97.80;;;;;;9720074;30;20230;-81
2021/08/10 16:04:41;;;;;;;3.77;3.50;;;23.30;96.20;;;;;;9727717;30;20236;-82
2021/08/10 16:09:44;;;;;;;4.17;3.53;;;23.30;97.40;;;;;;9717068;30;20220;-82
2021/08/10 16:14:47;;;;;;;3.73;3.43;;;23.30;97.30;;;;;;9741213;30;20237;-81
2021/08/10 16:19:49;;;;;;;3.70;3.30;;;23.20;97.10;;;;;;9692009;30;20655;-81
2021/08/10 16:24:53;;;;;;;4.27;3.50;;;23.20;96.00;;;;;;9701920;30;20724;-81
2021/08/10 16:29:55;;;;;;;7.10;4.17;;;23.20;96.00;;;;;;9717795;30;20237;-82
2021/08/10 16:34:59;;;;;;;6.53;3.60;;;23.20;97.50;;;;;;9714991;30;20631;-81
2021/08/10 16:40:04;;;;;;;4.07;3.57;;;23.10;96.00;;;;;;9697994;30;20585;-81
2021/08/10 16:45:10;;;;;;;3.70;3.40;;;23.10;96.30;;;;;;9706136;30;20223;-81
2021/08/10 16:50:23;;;;;;;3.53;3.33;;;23.00;98.10;;;;;;9704130;30;20677;-81
2021/08/10 16:55:27;;;;;;;3.60;3.17;;;22.90;97.60;;;;;;9704726;30;20241;-81
2021/08/10 17:00:29;;;;;;;11.87;4.03;;;22.80;98.90;;;;;;9710282;30;20241;-81
2021/08/10 17:05:32;;;;;;;3.70;3.40;;;22.80;99.20;;;;;;9679135;30;20211;-81
2021/08/10 17:10:36;;;;;;;3.97;3.67;;;22.80;99.40;;;;;;9677265;30;20298;-81
2021/08/10 17:15:38;;;;;;;4.10;3.57;;;22.70;98.80;;;;;;9693905;30;20221;-81
2021/08/10 17:20:40;;;;;;;4.50;4.20;;;22.70;97.70;;;;;;9679793;30;20238;-81
2021/08/10 17:25:45;;;;;;;3.13;2.83;;;22.70;99.90;;;;;;9687410;30;20210;-81
2021/08/10 17:30:47;;;;;;;4.07;3.70;;;22.70;99.90;;;;;;9706557;25;20233;-81
2021/08/10 17:35:49;;;;;;;3.63;3.27;;;22.60;99.10;;;;;;9698552;30;20213;-81
2021/08/10 17:40:53;;;;;;;4.60;4.20;;;22.60;98.40;;;;;;9704008;30;20253;-81
2021/08/10 17:45:55;;;;;;;4.87;4.03;;;22.70;99.90;;;;;;9686323;30;20215;-82
2021/08/10 17:50:57;;;;;;;3.97;3.50;;;22.70;99.80;;;;;;9696842;30;20238;-81
2021/08/10 17:56:01;;;;;;;3.67;3.37;;;22.60;99.50;;;;;;9681148;30;20218;-81
2021/08/10 18:01:03;;;;;;;8.10;6.93;;;22.60;99.90;;;;;;9685207;30;20247;-81
2021/08/10 18:06:06;;;;;;;5.07;4.70;;;22.50;99.80;;;;;;9685240;30;20215;-81
2021/08/10 18:11:10;;;;;;;4.60;4.30;;;22.40;99.90;;;;;;9664390;30;20242;-81
2021/08/10 18:16:12;;;;;;;4.17;3.87;;;22.30;99.90;;;;;;9678629;30;20215;-81
2021/08/10 18:21:15;;;;;;;4.63;4.33;;;22.30;99.90;;;;;;9714751;30;20280;-81
2021/08/10 18:26:18;;;;;;;4.37;4.07;;;22.20;99.90;;;;;;9689832;30;20215;-81
2021/08/10 18:31:20;;;;;;;4.13;3.83;;;22.10;99.90;;;;;;9694778;30;20242;-81
2021/08/10 18:36:22;;;;;;;4.47;4.17;;;22.00;99.90;;;;;;9691943;30;20253;-81
2021/08/10 18:41:26;;;;;;;7.03;4.10;;;22.00;99.90;;;;;;9678747;30;20705;-81
2021/08/10 18:46:28;;;;;;;5.90;3.90;;;21.90;99.90;;;;;;9679016;30;20218;-80
2021/08/10 18:51:31;;;;;;;4.77;4.37;;;21.90;99.90;;;;;;9695068;30;20230;-80
2021/08/10 18:56:34;;;;;;;5.67;4.10;;;21.90;99.90;;;;;;9691432;30;20207;-80
2021/08/10 19:01:36;;;;;;;4.17;3.87;;;21.80;99.90;;;;;;9701452;30;20226;-80
2021/08/10 19:06:38;;;;;;;5.23;4.57;;;21.60;99.90;;;;;;9712105;30;20642;-80
2021/08/10 19:11:42;;;;;;;5.93;4.10;;;21.50;99.90;;;;;;9727334;30;20233;-80
2021/08/10 19:16:44;;;;;;;5.00;4.20;;;21.40;99.90;;;;;;9712932;30;20250;-80
2021/08/10 19:21:46;;;;;;;5.97;4.70;;;21.30;99.90;;;;;;9695911;30;20250;-80
2021/08/10 19:26:50;;;;;;;5.00;4.50;;;21.20;99.90;;;;;;9693191;30;20223;-80
2021/08/10 19:31:52;;;;;;;4.40;4.10;;;21.10;99.90;;;;;;9730059;30;20256;-80
2021/08/10 19:36:56;;;;;;;5.40;4.70;;;21.00;99.90;;;;;;9730412;30;20210;-81
2021/08/10 19:41:59;;;;;;;6.57;4.43;;;21.00;99.90;;;;;;9703415;30;20645;-80
2021/08/10 19:47:01;;;;;;;4.77;4.40;;;21.00;99.90;;;;;;9717629;30;20682;-80
2021/08/10 19:52:04;;;;;;;5.73;4.73;;;21.00;99.90;;;;;;9705364;30;20276;-80
2021/08/10 19:57:07;;;;;;;4.90;4.60;;;21.00;99.90;;;;;;9708280;30;20207;-81
2021/08/10 20:02:10;;;;;;;4.73;4.23;;;20.90;99.90;;;;;;9679681;30;20222;-80
2021/08/10 20:07:12;;;;;;;5.70;4.53;;;20.90;99.90;;;;;;9679491;30;20202;-80
2021/08/10 20:12:15;;;;;;;5.17;4.60;;;20.90;99.90;;;;;;9688296;30;20225;-83
2021/08/10 20:17:17;;;;;;;5.03;4.50;;;20.80;99.90;;;;;;9709549;30;20225;-83
2021/08/10 20:22:19;;;;;;;5.17;4.77;;;20.70;99.90;;;;;;9695761;30;20243;-82
2021/08/10 20:27:23;;;;;;;5.33;4.33;;;20.70;99.90;;;;;;9674907;30;20761;-82
2021/08/10 20:32:25;;;;;;;5.60;5.20;;;20.70;99.90;;;;;;9675869;30;20294;-81
2021/08/10 20:37:27;;;;;;;5.50;5.00;;;20.70;99.90;;;;;;9671854;30;20219;-81
2021/08/10 20:42:31;;;;;;;5.50;5.10;;;20.70;99.90;;;;;;9680631;30;20264;-81
2021/08/10 20:47:33;;;;;;;5.97;4.20;;;20.70;99.90;;;;;;9702673;30;20665;-80
2021/08/10 20:52:35;;;;;;;4.27;3.70;;;20.70;99.90;;;;;;9720905;30;20587;-80
2021/08/10 20:57:39;;;;;;;4.93;4.63;;;20.60;99.90;;;;;;9718502;30;20212;-80
2021/08/10 21:02:41;;;;;;;4.67;4.37;;;20.60;99.90;;;;;;9717695;30;20288;-80
2021/08/10 21:07:43;;;;;;;5.73;5.23;;;20.60;99.90;;;;;;9715581;30;20223;-80
2021/08/10 21:12:48;;;;;;;5.20;4.27;;;20.50;99.90;;;;;;9711435;30;20326;-80
2021/08/10 21:17:50;;;;;;;4.90;4.50;;;20.50;99.90;;;;;;9684043;30;20305;-80
2021/08/10 21:22:52;;;;;;;6.57;4.77;;;20.40;99.90;;;;;;9692358;30;20719;-81
2021/08/10 21:27:55;;;;;;;4.70;4.40;;;20.40;99.90;;;;;;9688258;30;20302;-80
2021/08/10 21:32:57;;;;;;;11.33;4.90;;;20.40;99.90;;;;;;9695837;30;20408;-80
2021/08/10 21:37:59;;;;;;;4.43;3.97;;;20.30;99.90;;;;;;9668438;30;20249;-80
2021/08/10 21:43:04;;;;;;;5.40;4.83;;;20.20;99.90;;;;;;9692887;30;20237;-80
2021/08/10 21:48:06;;;;;;;6.10;5.60;;;20.20;99.90;;;;;;9695713;30;20664;-80
2021/08/10 21:53:08;;;;;;;4.37;4.07;;;20.20;99.90;;;;;;9701162;30;20244;-80
2021/08/10 21:58:12;;;;;;;4.87;4.40;;;20.20;99.90;;;;;;9692884;30;20238;-80
2021/08/10 22:03:14;;;;;;;4.33;4.03;;;20.20;99.90;;;;;;9695337;30;20688;-80
2021/08/10 22:08:16;;;;;;;5.10;4.60;;;20.30;99.90;;;;;;9699038;30;20294;-80
2021/08/10 22:19:36;;;;;;;5.13;4.73;;;20.30;99.90;;;;;;9687544;30;20199;-80
2021/08/10 22:24:38;;;;;;;5.17;4.77;;;20.30;99.90;;;;;;9674203;30;20238;-80
2021/08/10 22:29:40;;;;;;;8.20;5.10;;;20.40;99.90;;;;;;9695719;30;20718;-80
2021/08/10 22:34:43;;;;;;;5.23;4.73;;;20.40;99.90;;;;;;9673037;30;20245;-80
2021/08/10 22:39:45;;;;;;;5.60;4.93;;;20.40;99.90;;;;;;9681760;30;20580;-80
2021/08/10 22:44:47;;;;;;;5.10;4.70;;;20.40;99.90;;;;;;9698196;30;20780;-80
2021/08/10 22:49:51;;;;;;;5.20;4.70;;;20.30;99.90;;;;;;9701152;30;20210;-81
2021/08/10 22:54:53;;;;;;;5.27;4.80;;;20.30;99.90;;;;;;9700100;30;20265;-81
2021/08/10 22:59:56;;;;;;;4.70;4.30;;;20.30;99.90;;;;;;9727088;30;20254;-81
2021/08/10 23:05:00;;;;;;;4.60;3.93;;;20.20;99.90;;;;;;9697179;30;20231;-81
2021/08/10 23:10:04;;;;;;;4.77;4.30;;;20.20;99.90;;;;;;9681992;30;20248;-81
2021/08/10 23:15:07;;;;;;;4.30;4.00;;;20.10;99.90;;;;;;9699995;30;20735;-81
2021/08/10 23:20:13;;;;;;;4.77;4.37;;;20.10;99.90;;;;;;9712656;30;20214;-81
2021/08/10 23:25:16;;;;;;;4.90;4.50;;;20.00;99.90;;;;;;9729270;30;20598;-81
2021/08/10 23:30:18;;;;;;;4.60;4.30;;;19.90;99.90;;;;;;9693104;30;20218;-81
2021/08/10 23:35:22;;;;;;;7.33;4.60;;;19.80;99.90;;;;;;9717477;25;20250;-82
2021/08/10 23:40:24;;;;;;;5.03;4.63;;;19.80;99.90;;;;;;9694995;30;20683;-83
2021/08/10 23:45:26;;;;;;;7.17;5.10;;;19.80;99.90;;;;;;9629915;30;20231;-82
2021/08/10 23:50:30;;;;;;;7.53;5.53;;;19.80;99.90;;;;;;9656467;30;20210;-82
2021/08/10 23:55:32;;;;;;;4.90;4.40;;;19.80;99.90;;;;;;9646811;30;20243;-82
